createdAt,value
2019-01-28T00:01:33.273Z,-2.54
2019-01-28T00:04:05.258Z,-2.32
2019-01-28T00:06:36.402Z,-2.30
2019-01-28T00:09:08.525Z,-2.23
2019-01-28T00:11:39.456Z,-2.15
2019-01-28T00:14:10.513Z,-2.01
2019-01-28T00:16:41.519Z,-1.91
2019-01-28T00:19:12.439Z,-1.84
2019-01-28T00:21:44.058Z,-1.81
2019-01-28T00:24:15.011Z,-1.82
2019-01-28T00:26:45.903Z,-1.77
2019-01-28T00:29:18.458Z,-2.07
2019-01-28T00:31:49.461Z,-1.91
2019-01-28T00:34:20.495Z,-2.13
2019-01-28T00:36:51.554Z,-2.20
2019-01-28T00:39:22.473Z,-1.97
2019-01-28T00:41:53.529Z,-2.03
2019-01-28T00:44:24.501Z,-2.09
2019-01-28T00:46:55.526Z,-1.96
2019-01-28T00:49:26.547Z,-1.90
2019-01-28T00:51:57.605Z,-2.02
2019-01-28T00:54:28.626Z,-1.81
2019-01-28T00:56:59.582Z,-1.53
2019-01-28T00:59:30.513Z,-1.44
2019-01-28T01:02:01.421Z,-1.45
2019-01-28T01:04:32.515Z,-1.53
2019-01-28T01:07:03.518Z,-1.30
2019-01-28T01:09:34.469Z,-1.56
2019-01-28T01:12:05.610Z,-1.82
2019-01-28T01:14:36.549Z,-1.92
2019-01-28T01:17:07.518Z,-1.86
2019-01-28T01:19:38.434Z,-1.64
2019-01-28T01:22:09.461Z,-1.75
2019-01-28T01:24:43.001Z,-1.54
2019-01-28T01:27:13.943Z,-1.54
2019-01-28T01:29:44.897Z,-1.90
2019-01-28T01:32:15.854Z,-1.93
2019-01-28T01:35:06.659Z,-2.01
2019-01-28T01:37:37.581Z,-1.88
2019-01-28T01:40:10.877Z,-1.74
2019-01-28T01:42:42.003Z,-1.69
2019-01-28T01:45:15.169Z,-1.99
2019-01-28T01:47:46.284Z,-1.70
2019-01-28T01:50:17.355Z,-1.85
2019-01-28T01:52:48.335Z,-1.51
2019-01-28T01:55:19.255Z,-1.76
2019-01-28T01:57:50.769Z,-1.48
2019-01-28T02:00:22.544Z,-1.30
2019-01-28T02:02:53.534Z,-1.37
2019-01-28T02:05:24.515Z,-1.31
2019-01-28T02:07:55.519Z,-1.69
2019-01-28T02:10:26.475Z,-1.54
2019-01-28T02:12:57.579Z,-1.64
2019-01-28T02:15:28.544Z,-1.52
2019-01-28T02:17:59.739Z,-1.26
2019-01-28T02:20:30.723Z,-1.27
2019-01-28T02:23:01.606Z,-1.45
2019-01-28T02:25:32.584Z,-1.52
2019-01-28T02:28:04.067Z,-1.59
2019-01-28T02:30:35.117Z,-1.57
2019-01-28T02:33:06.007Z,-1.62
2019-01-28T02:35:37.023Z,-1.44
2019-01-28T02:38:08.013Z,-1.16
2019-01-28T02:40:39.006Z,-1.09
2019-01-28T02:43:10.082Z,-1.03
2019-01-28T02:45:41.029Z,-1.23
2019-01-28T02:48:11.975Z,-1.13
2019-01-28T02:50:44.187Z,-0.96
2019-01-28T02:53:15.096Z,-1.06
2019-01-28T02:55:46.179Z,-0.90
2019-01-28T02:58:20.607Z,-1.09
2019-01-28T03:00:51.495Z,-0.90
2019-01-28T03:03:22.431Z,-0.90
2019-01-28T03:05:53.361Z,-0.86
2019-01-28T03:08:24.317Z,-0.53
2019-01-28T03:10:55.204Z,-0.59
2019-01-28T03:13:26.199Z,-0.55
2019-01-28T03:15:57.154Z,-0.45
2019-01-28T03:18:28.144Z,-0.55
2019-01-28T03:20:59.178Z,-0.48
2019-01-28T03:23:30.254Z,-0.64
2019-01-28T03:26:01.219Z,-0.69
2019-01-28T03:28:32.226Z,-0.59
2019-01-28T03:31:03.175Z,-0.53
2019-01-28T03:33:34.068Z,-0.51
2019-01-28T03:36:05.387Z,-0.40
2019-01-28T03:38:36.317Z,-0.61
2019-01-28T03:41:07.235Z,-0.42
2019-01-28T03:43:38.482Z,-0.49
2019-01-28T03:46:09.853Z,-0.60
2019-01-28T03:48:41.340Z,-0.67
2019-01-28T03:51:12.406Z,-0.92
2019-01-28T03:53:43.430Z,-0.71
2019-01-28T03:56:14.390Z,-0.91
2019-01-28T03:58:46.214Z,-0.61
2019-01-28T04:01:17.109Z,-0.89
2019-01-28T04:03:48.007Z,-0.76
2019-01-28T04:06:19.099Z,-0.64
2019-01-28T04:08:50.056Z,-0.80
2019-01-28T04:11:20.988Z,-0.76
2019-01-28T04:13:52.000Z,-0.78
2019-01-28T04:16:24.771Z,-0.80
2019-01-28T04:18:55.681Z,-0.67
2019-01-28T04:21:26.875Z,-0.54
2019-01-28T04:23:57.841Z,-0.62
2019-01-28T04:26:28.782Z,-0.48
2019-01-28T04:28:59.800Z,-0.45
2019-01-28T04:31:30.696Z,-0.54
2019-01-28T04:34:01.723Z,-0.84
2019-01-28T04:36:32.578Z,-0.64
2019-01-28T04:39:04.930Z,-0.72
2019-01-28T04:41:35.906Z,-0.95
2019-01-28T04:44:07.018Z,-0.79
2019-01-28T04:46:37.936Z,-0.73
2019-01-28T04:49:09.082Z,-0.57
2019-01-28T04:51:42.277Z,-0.20
2019-01-28T04:54:13.177Z,-0.12
2019-01-28T04:56:47.329Z,-0.27
2019-01-28T04:59:19.909Z,-0.25
2019-01-28T05:01:50.910Z,-0.30
2019-01-28T05:04:21.883Z,-0.07
2019-01-28T05:06:52.783Z,-0.08
2019-01-28T05:09:23.700Z,-0.04
2019-01-28T05:11:54.651Z,-0.07
2019-01-28T05:14:25.616Z,-0.09
2019-01-28T05:16:56.819Z,-0.10
2019-01-28T05:19:27.875Z,-0.34
2019-01-28T05:21:58.788Z,-0.44
2019-01-28T05:24:29.747Z,-0.60
2019-01-28T05:27:00.923Z,-0.48
2019-01-28T05:29:31.841Z,-0.95
2019-01-28T05:32:02.815Z,-0.96
2019-01-28T05:34:33.715Z,-0.63
2019-01-28T05:37:08.299Z,-0.18
2019-01-28T05:39:40.685Z,-0.14
2019-01-28T05:42:11.924Z,-0.12
2019-01-28T05:44:43.808Z,-0.20
2019-01-28T05:47:14.921Z,-0.25
2019-01-28T05:49:45.932Z,-0.04
2019-01-28T05:52:17.016Z,0.28
2019-01-28T05:54:47.965Z,0.14
2019-01-28T05:57:18.986Z,-0.43
2019-01-28T05:59:49.935Z,-0.24
2019-01-28T06:02:20.916Z,-0.14
2019-01-28T06:04:51.905Z,-0.36
2019-01-28T06:07:22.791Z,-0.52
2019-01-28T06:09:53.763Z,-0.35
2019-01-28T06:12:24.667Z,-0.44
2019-01-28T06:14:55.661Z,-0.46
2019-01-28T06:17:26.638Z,-0.60
2019-01-28T06:19:57.631Z,-0.43
2019-01-28T06:22:28.543Z,-0.13
2019-01-28T06:24:59.519Z,-0.07
2019-01-28T06:27:30.436Z,0.09
2019-01-28T06:30:01.376Z,0.30
2019-01-28T06:32:32.300Z,0.20
2019-01-28T06:35:03.221Z,-0.16
2019-01-28T06:37:35.436Z,0.05
2019-01-28T06:40:08.295Z,0.19
2019-01-28T06:42:39.261Z,0.03
2019-01-28T06:45:12.250Z,0.05
2019-01-28T06:47:47.009Z,0.14
2019-01-28T06:50:17.789Z,0.34
2019-01-28T06:52:48.913Z,0.24
2019-01-28T06:55:21.683Z,0.33
2019-01-28T06:57:52.785Z,0.31
2019-01-28T07:00:28.951Z,0.39
2019-01-28T07:03:00.062Z,0.09
2019-01-28T07:05:31.209Z,0.28
2019-01-28T07:08:02.150Z,0.39
2019-01-28T07:10:33.120Z,0.07
2019-01-28T07:13:04.369Z,-0.03
2019-01-28T07:15:35.446Z,0.18
2019-01-28T07:18:06.375Z,0.31
2019-01-28T07:20:37.338Z,0.34
2019-01-28T07:23:08.401Z,0.21
2019-01-28T07:25:39.329Z,0.16
2019-01-28T07:28:10.389Z,0.34
2019-01-28T07:30:41.351Z,0.47
2019-01-28T07:33:12.266Z,0.58
2019-01-28T07:35:43.214Z,0.60
2019-01-28T07:38:14.228Z,0.58
2019-01-28T07:40:45.158Z,0.59
2019-01-28T07:43:16.110Z,0.78
2019-01-28T07:45:48.858Z,0.66
2019-01-28T07:48:20.342Z,0.80
2019-01-28T07:50:51.308Z,0.85
2019-01-28T07:53:22.222Z,0.97
2019-01-28T07:55:53.138Z,1.07
2019-01-28T07:58:24.036Z,1.01
2019-01-28T08:00:55.014Z,1.02
2019-01-28T08:03:26.052Z,0.81
2019-01-28T08:05:56.966Z,1.08
2019-01-28T08:08:30.456Z,1.12
2019-01-28T08:11:01.401Z,1.04
2019-01-28T08:13:32.296Z,0.97
2019-01-28T08:16:03.200Z,1.01
2019-01-28T08:18:34.618Z,0.99
2019-01-28T08:21:05.546Z,1.09
2019-01-28T08:23:36.515Z,1.06
2019-01-28T08:26:07.484Z,0.98
2019-01-28T08:28:38.395Z,1.11
2019-01-28T08:31:09.490Z,1.10
2019-01-28T08:33:40.481Z,1.29
2019-01-28T08:36:11.423Z,1.86
2019-01-28T08:38:42.704Z,1.98
2019-01-28T08:41:13.861Z,1.80
2019-01-28T08:43:44.766Z,1.36
2019-01-28T08:46:16.726Z,1.59
2019-01-28T08:48:47.789Z,1.39
2019-01-28T08:51:19.447Z,1.41
2019-01-28T08:53:50.395Z,1.53
2019-01-28T08:56:21.326Z,1.42
2019-01-28T08:58:52.253Z,1.30
2019-01-28T09:01:23.230Z,1.33
2019-01-28T09:03:54.114Z,1.55
2019-01-28T09:06:25.032Z,1.60
2019-01-28T09:08:56.128Z,1.70
2019-01-28T09:11:27.159Z,1.71
2019-01-28T09:13:58.069Z,1.74
2019-01-28T09:16:29.001Z,1.82
2019-01-28T09:19:03.338Z,1.93
2019-01-28T09:21:34.215Z,1.95
2019-01-28T09:24:05.878Z,1.97
2019-01-28T09:26:36.778Z,2.09
2019-01-28T09:29:07.713Z,1.94
2019-01-28T09:31:38.742Z,1.70
2019-01-28T09:34:09.651Z,1.82
2019-01-28T09:36:40.604Z,2.10
2019-01-28T09:39:11.688Z,2.30
2019-01-28T09:41:42.799Z,2.52
2019-01-28T09:44:36.314Z,2.57
2019-01-28T09:47:11.349Z,2.60
2019-01-28T09:49:58.278Z,2.57
2019-01-28T09:52:42.810Z,2.47
2019-01-28T09:55:28.308Z,2.25
2019-01-28T09:58:05.303Z,2.22
2019-01-28T10:00:55.374Z,2.35
2019-01-28T10:03:32.619Z,2.49
2019-01-28T10:06:20.313Z,2.43
2019-01-28T10:08:54.484Z,1.85
2019-01-28T10:11:40.309Z,1.76
2019-01-28T10:14:17.553Z,2.26
2019-01-28T10:16:59.309Z,2.56
2019-01-28T10:19:33.868Z,2.26
2019-01-28T10:22:21.333Z,2.39
2019-01-28T10:25:13.013Z,2.21
2019-01-28T10:27:52.245Z,2.23
2019-01-28T10:30:31.154Z,2.43
2019-01-28T10:33:11.604Z,2.72
2019-01-28T10:35:52.111Z,3.11
2019-01-28T10:38:30.267Z,2.89
2019-01-28T10:41:07.540Z,3.04
2019-01-28T10:43:52.029Z,3.21
2019-01-28T10:46:26.991Z,2.94
2019-01-28T10:49:04.785Z,3.08
2019-01-28T10:51:41.338Z,3.18
2019-01-28T10:54:21.024Z,3.37
2019-01-28T10:56:53.397Z,3.35
2019-01-28T10:59:30.175Z,3.33
2019-01-28T11:02:16.672Z,3.15
2019-01-28T11:04:48.890Z,3.31
2019-01-28T11:07:21.334Z,2.92
2019-01-28T11:10:08.066Z,3.12
2019-01-28T11:12:49.285Z,3.28
2019-01-28T11:15:27.895Z,3.87
2019-01-28T11:18:05.153Z,4.34
2019-01-28T11:20:52.540Z,4.67
2019-01-28T11:23:27.290Z,4.45
2019-01-28T11:26:08.712Z,4.64
2019-01-28T11:28:41.593Z,4.91
2019-01-28T11:31:19.444Z,4.78
2019-01-28T11:34:12.322Z,4.83
2019-01-28T11:36:57.353Z,4.85
2019-01-28T11:39:35.768Z,4.57
2019-01-28T11:42:18.015Z,4.85
2019-01-28T11:45:24.020Z,5.15
2019-01-28T11:48:11.870Z,5.30
2019-01-28T11:51:00.624Z,5.63
2019-01-28T11:53:39.630Z,5.96
2019-01-28T11:56:16.140Z,6.42
2019-01-28T11:58:54.229Z,6.13
2019-01-28T12:01:35.496Z,6.44
2019-01-28T12:04:21.544Z,6.43
2019-01-28T12:07:01.303Z,6.22
2019-01-28T12:09:39.753Z,5.95
2019-01-28T12:12:16.491Z,6.22
2019-01-28T12:14:50.316Z,6.69
2019-01-28T12:17:33.634Z,7.02
2019-01-28T12:20:10.098Z,6.88
2019-01-28T12:22:47.791Z,7.01
2019-01-28T12:25:26.247Z,6.37
2019-01-28T12:27:59.149Z,6.20
2019-01-28T12:30:33.200Z,6.09
2019-01-28T12:33:05.078Z,6.02
2019-01-28T12:35:38.608Z,5.50
2019-01-28T12:38:15.890Z,5.22
2019-01-28T12:40:53.554Z,5.11
2019-01-28T12:43:41.896Z,5.06
2019-01-28T12:46:27.352Z,4.96
2019-01-28T12:49:01.228Z,4.80
2019-01-28T12:51:38.886Z,4.93
2019-01-28T12:54:13.923Z,4.88
2019-01-28T12:56:54.387Z,4.89
2019-01-28T12:59:40.414Z,4.73
2019-01-28T13:02:29.239Z,4.74
2019-01-28T13:05:05.917Z,4.25
2019-01-28T13:07:39.819Z,4.05
2019-01-28T13:10:35.859Z,4.17
2019-01-28T13:13:11.651Z,4.19
2019-01-28T13:15:50.181Z,3.84
2019-01-28T13:18:31.970Z,3.75
2019-01-28T13:21:03.597Z,3.94
2019-01-28T13:23:42.996Z,3.71
2019-01-28T13:26:29.229Z,3.71
2019-01-28T13:29:07.540Z,3.89
2019-01-28T13:31:57.048Z,3.71
2019-01-28T13:34:34.572Z,3.61
2019-01-28T13:37:21.058Z,3.90
2019-01-28T13:40:05.004Z,3.79
2019-01-28T13:42:43.487Z,3.76
2019-01-28T13:45:31.145Z,3.71
2019-01-28T13:48:31.549Z,3.79
2019-01-28T13:51:37.050Z,3.50
2019-01-28T13:54:16.538Z,3.52
2019-01-28T13:57:17.369Z,3.23
2019-01-28T14:03:11.788Z,3.60
2019-01-28T14:06:03.338Z,3.48
2019-01-28T14:08:45.506Z,3.36
2019-01-28T14:11:47.517Z,3.38
2019-01-28T14:14:25.136Z,3.06
2019-01-28T14:17:18.993Z,3.30
2019-01-28T14:20:24.712Z,3.04
2019-01-28T14:23:04.593Z,2.90
2019-01-28T14:25:48.014Z,2.71
2019-01-28T14:28:40.954Z,2.82
2019-01-28T14:31:38.278Z,2.79
2019-01-28T14:34:42.464Z,2.83
2019-01-28T14:37:34.050Z,2.48
2019-01-28T14:40:16.732Z,2.52
2019-01-28T14:43:19.032Z,2.23
2019-01-28T14:46:06.256Z,2.48
2019-01-28T14:49:07.612Z,2.47
2019-01-28T14:51:56.020Z,2.24
2019-01-28T14:54:32.709Z,2.48
2019-01-28T14:57:30.149Z,2.49
2019-01-28T15:00:05.442Z,2.29
2019-01-28T15:02:43.502Z,2.42
2019-01-28T15:05:20.052Z,2.37
2019-01-28T15:07:55.248Z,2.32
2019-01-28T15:10:48.491Z,2.56
2019-01-28T15:13:58.395Z,2.14
2019-01-28T15:16:36.706Z,2.13
2019-01-28T15:19:18.234Z,2.37
2019-01-28T15:22:00.922Z,2.16
2019-01-28T15:24:39.912Z,2.17
2019-01-28T15:27:22.705Z,2.33
2019-01-28T15:30:05.370Z,1.96
2019-01-28T15:32:45.025Z,1.94
2019-01-28T15:35:50.229Z,1.98
2019-01-28T15:38:31.561Z,1.98
2019-01-28T15:41:31.348Z,2.09
2019-01-28T15:44:19.918Z,2.29
2019-01-28T15:47:10.467Z,2.07
2019-01-28T15:52:51.310Z,1.91
2019-01-28T15:55:47.327Z,2.02
2019-01-28T15:58:30.560Z,2.06
2019-01-28T16:01:11.465Z,1.83
2019-01-28T16:03:54.595Z,1.93
2019-01-28T16:06:33.878Z,2.25
2019-01-28T16:09:28.653Z,2.21
2019-01-28T16:11:56.987Z,2.09
2019-01-28T16:14:38.563Z,2.03
2019-01-28T16:17:21.274Z,2.07
2019-01-28T16:20:06.547Z,2.06
2019-01-28T16:22:50.393Z,1.86
2019-01-28T16:25:28.655Z,2.14
2019-01-28T16:31:02.905Z,1.89
2019-01-28T16:33:57.187Z,2.08
2019-01-28T16:36:38.571Z,2.05
2019-01-28T16:39:23.965Z,2.26
2019-01-28T16:42:02.124Z,2.21
2019-01-28T16:44:49.765Z,2.09
2019-01-28T16:47:30.619Z,2.17
2019-01-28T16:50:16.886Z,2.30
2019-01-28T16:53:00.632Z,2.10
2019-01-28T16:55:43.521Z,2.11
2019-01-28T16:58:37.640Z,2.07
2019-01-28T17:01:22.635Z,1.91
2019-01-28T17:04:12.209Z,1.99
2019-01-28T17:07:02.878Z,2.19
2019-01-28T17:09:41.752Z,2.11
2019-01-28T17:12:15.194Z,2.05
2019-01-28T17:14:49.041Z,1.98
2019-01-28T17:17:25.635Z,2.18
2019-01-28T17:20:00.872Z,2.26
2019-01-28T17:22:41.467Z,2.19
2019-01-28T17:25:32.649Z,1.97
2019-01-28T17:28:04.108Z,1.77
2019-01-28T17:30:47.187Z,1.89
2019-01-28T17:33:54.616Z,1.91
2019-01-28T17:36:46.398Z,1.91
2019-01-28T17:39:54.643Z,1.90
2019-01-28T17:42:33.598Z,1.81
2019-01-28T17:45:25.008Z,1.76
2019-01-28T17:48:00.930Z,1.68
2019-01-28T17:50:50.771Z,2.08
2019-01-28T17:53:31.352Z,2.07
2019-01-28T17:56:34.027Z,1.89
2019-01-28T17:59:29.548Z,1.88
2019-01-28T18:02:15.285Z,1.93
2019-01-28T18:05:02.095Z,2.01
2019-01-28T18:07:47.232Z,2.22
2019-01-28T18:10:43.855Z,2.24
2019-01-28T18:13:27.371Z,2.58
2019-01-28T18:16:16.001Z,2.51
2019-01-28T18:19:29.383Z,2.15
2019-01-28T18:22:47.240Z,2.13
2019-01-28T18:25:36.680Z,1.91
2019-01-28T18:28:22.147Z,2.09
2019-01-28T18:31:24.080Z,1.79
2019-01-28T18:34:29.833Z,1.62
2019-01-28T18:37:22.362Z,2.02
2019-01-28T18:40:19.259Z,1.87
2019-01-28T18:43:20.465Z,1.77
2019-01-28T18:46:39.471Z,2.02
2019-01-28T18:49:21.766Z,2.01
2019-01-28T18:52:06.881Z,1.92
2019-01-28T18:55:00.257Z,1.92
2019-01-28T18:58:05.548Z,2.05
2019-01-28T19:00:51.846Z,2.47
2019-01-28T19:03:45.192Z,2.27
2019-01-28T19:06:48.513Z,2.13
2019-01-28T19:09:35.404Z,2.03
2019-01-28T19:12:53.424Z,2.15
2019-01-28T19:15:52.355Z,2.18
2019-01-28T19:18:49.998Z,2.56
2019-01-28T19:21:40.788Z,2.62
2019-01-28T19:24:45.861Z,2.54
2019-01-28T19:31:23.568Z,2.27
2019-01-28T19:34:40.642Z,2.15
2019-01-28T19:37:22.790Z,2.27
2019-01-28T19:40:25.650Z,2.86
2019-01-28T19:46:34.132Z,2.34
2019-01-28T19:49:50.558Z,2.29
2019-01-28T19:52:41.401Z,2.23
2019-01-28T19:56:24.722Z,2.35
2019-01-28T19:59:25.140Z,2.53
2019-01-28T20:02:13.580Z,2.30
2019-01-28T20:05:14.248Z,2.58
2019-01-28T20:08:34.135Z,2.46
2019-01-28T20:11:24.464Z,2.08
2019-01-28T20:14:50.209Z,2.41
2019-01-28T20:18:04.067Z,2.51
2019-01-28T20:20:56.080Z,2.50
2019-01-28T20:23:41.975Z,2.51
2019-01-28T20:26:20.740Z,2.29
2019-01-28T20:29:07.926Z,2.54
2019-01-28T20:31:46.815Z,2.54
2019-01-28T20:34:27.502Z,2.59
2019-01-28T20:37:02.086Z,2.54
2019-01-28T20:39:48.791Z,2.84
2019-01-28T20:42:53.678Z,2.64
2019-01-28T20:45:44.780Z,2.56
2019-01-28T20:48:37.299Z,2.53
2019-01-28T20:51:18.889Z,2.25
2019-01-28T20:54:05.238Z,2.43
2019-01-28T20:56:44.794Z,2.49
2019-01-28T20:59:48.788Z,2.37
2019-01-28T21:03:03.864Z,2.28
2019-01-28T21:06:15.387Z,2.30
2019-01-28T21:09:11.782Z,2.42
2019-01-28T21:12:10.826Z,2.43
2019-01-28T21:15:01.757Z,2.30
2019-01-28T21:17:51.796Z,2.05
2019-01-28T21:20:53.013Z,2.24
2019-01-28T21:23:42.415Z,2.11
2019-01-28T21:26:34.881Z,2.02
2019-01-28T21:29:24.784Z,2.10
2019-01-28T21:32:15.015Z,2.16
2019-01-28T21:35:06.703Z,2.20
2019-01-28T21:38:01.784Z,2.21
2019-01-28T21:40:57.275Z,2.20
2019-01-28T21:43:47.606Z,2.34
2019-01-28T21:46:37.544Z,2.36
2019-01-28T21:49:28.508Z,2.33
2019-01-28T21:52:18.740Z,2.30
2019-01-28T21:54:50.647Z,2.44
2019-01-28T21:57:22.071Z,2.36
2019-01-28T21:59:54.441Z,2.36
2019-01-28T22:02:25.857Z,2.29
2019-01-28T22:04:57.331Z,2.30
2019-01-28T22:07:28.765Z,2.39
2019-01-28T22:10:00.255Z,2.37
2019-01-28T22:12:31.789Z,2.43
2019-01-28T22:15:03.361Z,2.37
2019-01-28T22:17:34.812Z,2.34
2019-01-28T22:20:07.388Z,2.35
2019-01-28T22:22:38.711Z,2.45
2019-01-28T22:25:11.785Z,2.44
2019-01-28T22:27:43.297Z,2.36
2019-01-28T22:30:17.514Z,2.36
2019-01-28T22:32:49.256Z,2.29
2019-01-28T22:35:20.732Z,2.27
2019-01-28T22:37:52.224Z,2.47
2019-01-28T22:40:23.646Z,2.36
2019-01-28T22:42:55.213Z,2.48
2019-01-28T22:45:29.839Z,2.39
2019-01-28T22:48:01.804Z,2.57
2019-01-28T22:50:33.283Z,2.67
2019-01-28T22:53:07.877Z,2.56
2019-01-28T22:55:41.886Z,2.48
2019-01-28T22:58:13.345Z,2.30
2019-01-28T23:01:09.315Z,2.56
2019-01-28T23:03:40.835Z,2.54
2019-01-28T23:06:12.832Z,2.35
2019-01-28T23:08:44.355Z,2.30
2019-01-28T23:11:15.767Z,2.25
2019-01-28T23:13:47.135Z,2.18
2019-01-28T23:16:18.514Z,2.32
2019-01-28T23:18:50.073Z,2.16
2019-01-28T23:21:21.556Z,2.42
2019-01-28T23:23:52.848Z,2.23
2019-01-28T23:26:24.228Z,2.40
2019-01-28T23:28:55.470Z,2.55
2019-01-28T23:31:26.826Z,2.54
2019-01-28T23:33:59.399Z,2.51
2019-01-28T23:36:30.955Z,2.48
2019-01-28T23:39:02.405Z,2.41
2019-01-28T23:41:33.703Z,2.16
2019-01-28T23:44:05.095Z,2.21
2019-01-28T23:46:36.261Z,2.10
2019-01-28T23:49:09.209Z,2.21
2019-01-28T23:51:41.064Z,2.23
2019-01-28T23:54:12.330Z,2.23
2019-01-28T23:56:43.918Z,2.44
2019-01-28T23:59:15.307Z,2.27
